Time;durP1;ratioP1;P1;durP2;ratioP2;P2;SDS_P1;SDS_P2;PMS_P1;PMS_P2;Temp;Humidity;BMP_temperature;BMP_pressure;BME280_temperature;BME280_humidity;BME280_pressure;Samples;Min_cycle;Max_cycle;Signal;HPM_P1;HPM_P2
2022/12/26 00:01:53;;;;;;;48.17;34.60;;;10.70;99.90;;;;;;5027219;28;20033;-53
2022/12/26 00:04:19;;;;;;;44.25;31.25;;;10.70;99.90;;;;;;5031050;28;20025;-53
2022/12/26 00:06:45;;;;;;;46.75;29.65;;;10.60;99.90;;;;;;5031103;28;20088;-54
2022/12/26 00:09:11;;;;;;;42.95;29.73;;;10.90;99.90;;;;;;5030632;28;20079;-52
2022/12/26 00:11:37;;;;;;;57.05;36.88;;;11.10;99.90;;;;;;5031161;28;20029;-53
2022/12/26 00:14:07;;;;;;;38.33;25.70;;;11.20;99.90;;;;;;5018438;28;20043;-52
2022/12/26 00:16:33;;;;;;;34.42;26.20;;;10.70;99.90;;;;;;5050138;28;20531;-52
2022/12/26 00:18:59;;;;;;;50.83;32.63;;;10.90;99.90;;;;;;5050754;28;20037;-52
2022/12/26 00:21:27;;;;;;;42.80;29.10;;;10.90;99.90;;;;;;5050648;28;20071;-55
2022/12/26 00:23:56;;;;;;;38.17;27.27;;;10.50;99.90;;;;;;5067802;28;20056;-53
2022/12/26 00:26:24;;;;;;;41.50;28.13;;;10.80;99.90;;;;;;5070797;28;20044;-52
2022/12/26 00:28:52;;;;;;;37.88;26.60;;;11.00;99.90;;;;;;5068077;28;20069;-54
2022/12/26 00:31:23;;;;;;;39.38;27.10;;;11.10;99.90;;;;;;5070764;28;20039;-53
2022/12/26 00:33:49;;;;;;;34.78;25.42;;;10.80;99.90;;;;;;5070657;28;20388;-52
2022/12/26 00:36:23;;;;;;;38.33;26.58;;;10.60;99.90;;;;;;5070694;28;20083;-51
2022/12/26 00:38:49;;;;;;;38.72;26.10;;;;;;;;;;5070788;28;20064;-51
2022/12/26 00:41:16;;;;;;;40.08;26.67;;;11.10;99.90;;;;;;5070422;28;20044;-51
2022/12/26 00:43:42;;;;;;;36.88;27.48;;;11.00;99.90;;;;;;5070610;28;20028;-52
2022/12/26 00:46:08;;;;;;;39.17;27.75;;;11.20;99.90;;;;;;5070630;28;20050;-51
2022/12/26 00:48:34;;;;;;;39.75;27.13;;;11.10;99.90;;;;;;5091935;28;20036;-51
2022/12/26 00:51:01;;;;;;;41.60;29.48;;;11.00;99.90;;;;;;5092840;28;20394;-51
2022/12/26 00:53:27;;;;;;;36.50;27.17;;;11.10;99.90;;;;;;5074093;28;20439;-52
2022/12/26 00:55:53;;;;;;;37.83;27.30;;;10.90;99.90;;;;;;5091328;28;20036;-51
2022/12/26 00:58:20;;;;;;;37.20;27.63;;;10.90;99.90;;;;;;5093060;28;20352;-52
2022/12/26 01:00:47;;;;;;;39.83;27.67;;;11.10;99.90;;;;;;5093197;28;20115;-52
2022/12/26 01:03:13;;;;;;;42.25;27.70;;;11.20;99.90;;;;;;5074171;28;20028;-53
2022/12/26 01:05:41;;;;;;;36.47;26.33;;;10.80;99.90;;;;;;5040689;28;20036;-51
2022/12/26 01:08:07;;;;;;;38.72;27.80;;;10.90;99.90;;;;;;5092975;28;20088;-51
2022/12/26 01:10:32;;;;;;;42.35;28.35;;;11.10;99.90;;;;;;5092977;28;20028;-53
2022/12/26 01:12:58;;;;;;;40.10;29.38;;;11.20;99.90;;;;;;5092549;28;20081;-52
2022/12/26 01:15:24;;;;;;;43.85;29.73;;;11.20;99.90;;;;;;5092605;28;20036;-54
2022/12/26 01:17:50;;;;;;;37.20;28.85;;;11.20;99.90;;;;;;5092574;28;20036;-54
2022/12/26 01:20:15;;;;;;;41.85;29.70;;;11.20;99.90;;;;;;5092881;28;20028;-52
2022/12/26 01:22:41;;;;;;;39.78;29.08;;;11.20;99.90;;;;;;5095640;28;20028;-53
2022/12/26 01:25:09;;;;;;;43.03;29.38;;;11.30;99.90;;;;;;5077398;28;20048;-51
2022/12/26 01:27:34;;;;;;;51.13;33.60;;;11.30;99.90;;;;;;5096134;28;20113;-52
2022/12/26 01:30:00;;;;;;;45.97;31.63;;;11.40;99.90;;;;;;5096159;28;20527;-51
2022/12/26 01:32:26;;;;;;;48.15;32.40;;;11.10;99.90;;;;;;5096275;28;20085;-54
2022/12/26 01:34:54;;;;;;;54.42;34.22;;;11.10;99.90;;;;;;5077150;28;20071;-53
2022/12/26 01:37:21;;;;;;;52.35;33.13;;;11.20;99.90;;;;;;5096309;28;20538;-52
2022/12/26 01:39:47;;;;;;;53.55;34.90;;;11.10;99.90;;;;;;5095954;28;20039;-51
2022/12/26 01:42:16;;;;;;;53.60;34.78;;;10.90;99.90;;;;;;5092437;28;20020;-51
2022/12/26 01:45:03;;;;;;;50.45;34.35;;;11.00;99.90;;;;;;5089683;28;20035;-52
2022/12/26 01:47:45;;;;;;;47.15;32.47;;;11.00;99.90;;;;;;5095914;28;20028;-53
2022/12/26 01:50:26;;;;;;;47.17;32.83;;;10.90;99.90;;;;;;5095716;28;20051;-54
2022/12/26 01:52:53;;;;;;;46.78;34.22;;;10.90;99.90;;;;;;5093838;28;20066;-51
2022/12/26 01:55:21;;;;;;;57.00;34.83;;;11.00;99.90;;;;;;5095631;28;20475;-51
2022/12/26 01:57:56;;;;;;;51.10;33.30;;;11.00;99.90;;;;;;5095935;28;20054;-51
2022/12/26 02:00:22;;;;;;;50.17;36.03;;;11.00;99.90;;;;;;5096067;28;20032;-52
2022/12/26 02:05:33;;;;;;;47.38;33.50;;;11.20;99.90;;;;;;5095621;28;20043;-53
2022/12/26 02:08:08;;;;;;;45.88;34.20;;;11.20;99.90;;;;;;5095478;28;20107;-52
2022/12/26 02:10:55;;;;;;;46.53;33.55;;;11.30;99.90;;;;;;5095934;28;20138;-52
2022/12/26 02:13:22;;;;;;;51.63;36.25;;;11.30;99.90;;;;;;5095302;28;20165;-52
2022/12/26 02:15:48;;;;;;;55.65;39.55;;;11.30;99.90;;;;;;5095394;28;20073;-54
2022/12/26 02:18:14;;;;;;;53.75;38.42;;;11.20;99.90;;;;;;5095228;28;20510;-51
2022/12/26 02:21:14;;;;;;;53.47;38.58;;;11.20;99.90;;;;;;5076714;28;20384;-53
2022/12/26 02:24:17;;;;;;;53.83;38.35;;;11.30;99.90;;;;;;5095037;28;20075;-52
2022/12/26 02:27:18;;;;;;;56.60;37.40;;;11.40;99.90;;;;;;5095202;28;20042;-52
2022/12/26 02:29:52;;;;;;;52.55;37.20;;;11.40;99.90;;;;;;5090808;28;20032;-54
2022/12/26 02:32:47;;;;;;;55.33;40.33;;;11.50;99.90;;;;;;5094883;28;20132;-53
2022/12/26 02:35:28;;;;;;;50.50;37.67;;;11.50;99.90;;;;;;5095202;28;20040;-53
2022/12/26 02:38:26;;;;;;;59.92;38.42;;;11.40;99.90;;;;;;5094842;28;20036;-54
2022/12/26 02:41:19;;;;;;;48.28;35.97;;;11.30;99.90;;;;;;5091675;28;20055;-51
2022/12/26 02:47:18;;;;;;;53.17;37.95;;;11.40;99.90;;;;;;5094810;28;20407;-53
2022/12/26 03:13:21;;;;;;;80.87;49.73;;;11.50;99.90;;;;;;4973256;28;20065;-53
2022/12/26 03:18:55;;;;;;;52.05;37.97;;;11.40;99.90;;;;;;4973279;28;20082;-55
2022/12/26 03:21:26;;;;;;;54.08;37.45;;;11.40;99.90;;;;;;4972780;28;20439;-56
2022/12/26 03:23:54;;;;;;;66.97;43.00;;;11.50;99.90;;;;;;4926157;28;20133;-54
2022/12/26 03:26:41;;;;;;;73.18;47.33;;;11.50;99.90;;;;;;4972987;28;20621;-54
2022/12/26 03:31:56;;;;;;;56.97;42.30;;;11.10;99.90;;;;;;4973022;28;20057;-54
2022/12/26 03:34:22;;;;;;;74.55;46.70;;;11.00;99.90;;;;;;4972803;28;20047;-55
2022/12/26 03:37:06;;;;;;;72.32;43.80;;;11.10;99.90;;;;;;4956710;28;20038;-55
2022/12/26 04:44:25;;;;;;;41.72;30.45;;;9.00;99.90;;;;;;5093815;28;20490;-53
2022/12/26 04:46:52;;;;;;;43.53;29.92;;;9.10;99.90;;;;;;5092671;28;20078;-53
2022/12/26 04:52:06;;;;;;;40.97;30.98;;;8.90;99.90;;;;;;5070895;28;20071;-53
2022/12/26 04:54:32;;;;;;;47.33;33.05;;;8.80;99.90;;;;;;5070516;28;20056;-54
2022/12/26 04:56:58;;;;;;;45.67;32.78;;;8.80;99.90;;;;;;5070806;28;20028;-53
2022/12/26 04:59:24;;;;;;;45.58;31.20;;;8.70;99.90;;;;;;4991939;28;20045;-52
2022/12/26 05:10:24;;;;;;;38.13;28.02;;;8.40;99.90;;;;;;5066633;28;20052;-53
2022/12/26 05:12:51;;;;;;;35.75;26.60;;;8.60;99.90;;;;;;5054517;28;20040;-53
2022/12/26 05:15:17;;;;;;;35.63;25.70;;;8.50;99.90;;;;;;5042777;28;20598;-53
2022/12/26 05:28:58;;;;;;;34.63;26.38;;;8.80;99.90;;;;;;5073891;28;20135;-53
2022/12/26 05:31:24;;;;;;;35.25;22.02;;;8.70;99.90;;;;;;5040401;28;20123;-53
2022/12/26 05:34:09;;;;;;;30.80;17.20;;;8.80;99.90;;;;;;5040305;28;20128;-53
2022/12/26 05:36:40;;;;;;;29.77;20.42;;;8.80;99.90;;;;;;5073869;28;20032;-53
2022/12/26 05:39:07;;;;;;;33.28;21.38;;;8.90;99.90;;;;;;5068635;28;20115;-52
2022/12/26 05:41:34;;;;;;;32.60;21.63;;;9.00;99.90;;;;;;5050702;28;20071;-54
2022/12/26 05:43:59;;;;;;;29.38;21.10;;;8.90;99.90;;;;;;5064038;28;20028;-52
2022/12/26 05:46:25;;;;;;;30.05;21.20;;;9.00;99.90;;;;;;5073552;28;20040;-53
2022/12/26 05:48:51;;;;;;;27.25;18.90;;;9.10;99.90;;;;;;5040035;28;20125;-52
2022/12/26 05:51:17;;;;;;;24.10;18.15;;;8.90;99.90;;;;;;5056427;28;20527;-54
2022/12/26 05:53:42;;;;;;;25.75;17.38;;;9.00;99.90;;;;;;5074265;28;20047;-53
2022/12/26 05:56:14;;;;;;;30.60;19.23;;;9.10;99.90;;;;;;5070546;28;20256;-53
2022/12/26 05:58:40;;;;;;;30.70;20.57;;;8.90;99.90;;;;;;5069710;28;20487;-52
2022/12/26 06:01:10;;;;;;;31.98;21.05;;;8.90;99.90;;;;;;5071766;28;20046;-53
2022/12/26 06:03:37;;;;;;;39.17;29.60;;;8.80;99.90;;;;;;5075445;28;20056;-54
2022/12/26 06:06:04;;;;;;;32.40;24.73;;;8.80;99.90;;;;;;5073067;28;20055;-53
2022/12/26 06:08:30;;;;;;;37.65;29.80;;;9.00;99.90;;;;;;5074885;28;20078;-52
2022/12/26 06:10:55;;;;;;;42.25;32.00;;;9.20;99.90;;;;;;5039807;28;20044;-49
2022/12/26 06:13:22;;;;;;;36.97;29.05;;;9.10;99.90;;;;;;5056705;28;20116;-53
2022/12/26 06:15:48;;;;;;;32.72;25.13;;;9.10;99.90;;;;;;5075326;28;20028;-53
2022/12/26 06:18:13;;;;;;;32.33;23.38;;;9.30;99.90;;;;;;5055057;28;20032;-53
2022/12/26 06:20:39;;;;;;;30.98;23.02;;;9.10;99.90;;;;;;5073289;28;20036;-52
2022/12/26 06:23:05;;;;;;;38.20;28.10;;;;;;;;;;5077147;28;20491;-52
2022/12/26 06:25:31;;;;;;;38.35;27.95;;;;;;;;;;5086548;28;20024;-54
2022/12/26 06:27:57;;;;;;;41.95;27.15;;;9.60;99.90;;;;;;5084709;28;20034;-53
2022/12/26 06:30:23;;;;;;;36.80;26.63;;;9.50;99.90;;;;;;5085237;28;20111;-53
2022/12/26 06:32:49;;;;;;;36.90;26.33;;;9.20;99.90;;;;;;5090186;28;20036;-53
2022/12/26 06:35:15;;;;;;;38.17;28.02;;;9.10;99.90;;;;;;5086379;28;20082;-53
2022/12/26 06:37:41;;;;;;;34.45;25.45;;;;;;;;;;5058948;28;20518;-53
2022/12/26 06:40:07;;;;;;;47.97;32.40;;;9.20;99.90;;;;;;5074489;28;20063;-53
2022/12/26 06:42:33;;;;;;;50.50;36.92;;;9.20;99.90;;;;;;5039527;28;20040;-52
2022/12/26 06:45:01;;;;;;;51.70;37.03;;;;;;;;;;5074529;28;20031;-53
2022/12/26 06:47:27;;;;;;;54.17;39.92;;;8.90;99.90;;;;;;5074851;28;20038;-53
2022/12/26 06:49:53;;;;;;;57.95;41.28;;;9.00;99.90;;;;;;5073962;28;20059;-53
2022/12/26 06:52:19;;;;;;;64.93;43.30;;;9.20;99.90;;;;;;5074199;28;20059;-53
2022/12/26 06:54:45;;;;;;;57.88;41.97;;;9.50;99.90;;;;;;5073914;28;20119;-54
2022/12/26 06:57:10;;;;;;;65.45;42.63;;;9.60;99.90;;;;;;5070890;28;20093;-53
2022/12/26 06:59:36;;;;;;;64.10;44.40;;;9.70;99.90;;;;;;5093362;28;20085;-53
2022/12/26 07:02:02;;;;;;;55.28;39.65;;;9.80;99.90;;;;;;5093741;28;20031;-53
2022/12/26 07:04:27;;;;;;;60.17;39.03;;;9.70;99.90;;;;;;5075866;28;20504;-52
2022/12/26 07:06:53;;;;;;;55.10;34.83;;;9.40;99.90;;;;;;5094231;28;20048;-53
2022/12/26 07:09:19;;;;;;;52.35;35.88;;;;;;;;;;5094797;28;20028;-53
2022/12/26 07:11:46;;;;;;;59.75;40.88;;;;;;;;;;5093724;28;20074;-53
2022/12/26 07:14:12;;;;;;;59.67;40.45;;;;;;;;;;5089024;28;20425;-53
2022/12/26 07:16:41;;;;;;;70.07;43.15;;;8.50;99.90;;;;;;5091162;28;20032;-53
2022/12/26 07:19:07;;;;;;;64.35;41.67;;;;;;;;;;5084038;28;20028;-53
2022/12/26 07:21:33;;;;;;;57.08;40.83;;;8.60;99.90;;;;;;5093919;28;20483;-54
2022/12/26 07:23:59;;;;;;;51.90;36.88;;;;;;;;;;5093738;28;20118;-53
2022/12/26 07:26:25;;;;;;;51.00;34.65;;;;;;;;;;5093874;28;20036;-53
2022/12/26 07:28:56;;;;;;;45.58;33.53;;;16.10;99.90;;;;;;5093819;28;20032;-53
2022/12/26 07:31:22;;;;;;;46.83;38.22;;;18.40;99.90;;;;;;5094008;28;20081;-51
2022/12/26 07:33:53;;;;;;;39.20;30.80;;;18.60;99.90;;;;;;5093823;28;20020;-52
2022/12/26 07:36:19;;;;;;;35.42;28.52;;;;;;;;;;5094094;28;20024;-53
2022/12/26 07:38:45;;;;;;;53.50;40.17;;;21.00;99.90;;;;;;5094221;28;20032;-53
2022/12/26 07:43:56;;;;;;;57.45;38.10;;;24.00;98.20;;;;;;5093766;28;20544;-50
2022/12/26 07:46:22;;;;;;;35.88;29.40;;;;;;;;;;5093880;28;20056;-50
2022/12/26 07:48:47;;;;;;;31.63;27.08;;;24.60;94.10;;;;;;5093598;28;20024;-51
2022/12/26 07:51:13;;;;;;;30.13;25.52;;;25.00;94.10;;;;;;5094035;28;20082;-50
2022/12/26 07:53:39;;;;;;;32.45;26.55;;;;;;;;;;5093601;28;20034;-51
2022/12/26 07:56:06;;;;;;;46.42;27.65;;;;;;;;;;5093672;28;20020;-50
2022/12/26 07:58:32;;;;;;;39.28;29.20;;;;;;;;;;5093398;28;20077;-51
2022/12/26 08:01:05;;;;;;;24.75;22.05;;;26.60;88.90;;;;;;5093750;28;20432;-50
2022/12/26 08:03:31;;;;;;;33.47;26.13;;;26.70;88.50;;;;;;5093409;28;20155;-50
2022/12/26 08:05:58;;;;;;;122.45;63.97;;;26.80;87.30;;;;;;5093417;28;20024;-54
2022/12/26 08:08:23;;;;;;;33.20;25.52;;;27.90;95.70;;;;;;5093643;28;20026;-51
2022/12/26 08:10:58;;;;;;;27.10;23.67;;;28.10;83.70;;;;;;5093137;28;20476;-52
2022/12/26 08:13:23;;;;;;;44.22;38.05;;;28.30;84.00;;;;;;5093607;28;20487;-53
2022/12/26 08:15:49;;;;;;;33.22;25.58;;;28.30;84.10;;;;;;5093180;28;20051;-52
2022/12/26 08:18:15;;;;;;;31.02;24.45;;;28.60;82.70;;;;;;5093193;28;20110;-54
2022/12/26 08:20:40;;;;;;;38.30;32.22;;;28.10;81.90;;;;;;5093426;28;20028;-53
2022/12/26 08:23:07;;;;;;;42.28;32.50;;;;;;;;;;5074435;28;20036;-53
2022/12/26 08:25:32;;;;;;;47.92;35.08;;;28.40;81.20;;;;;;5093096;28;20115;-52
2022/12/26 08:27:58;;;;;;;35.75;27.65;;;;;;;;;;5093214;28;20158;-52
2022/12/26 08:30:25;;;;;;;29.88;26.30;;;;;;;;;;5095526;28;20035;-53
2022/12/26 08:32:50;;;;;;;28.13;25.08;;;29.70;80.30;;;;;;5078787;28;20506;-53
2022/12/26 08:35:16;;;;;;;25.75;22.98;;;30.10;80.10;;;;;;5097820;28;20036;-53
2022/12/26 08:37:42;;;;;;;26.73;23.92;;;30.30;79.50;;;;;;5097407;28;20122;-52
2022/12/26 08:40:08;;;;;;;25.27;22.77;;;30.60;78.80;;;;;;5097330;28;20063;-54
2022/12/26 08:42:34;;;;;;;24.60;22.17;;;30.80;78.50;;;;;;5062275;28;20035;-53
2022/12/26 08:45:00;;;;;;;26.75;22.85;;;;;;;;;;5069368;28;20035;-52
2022/12/26 08:47:26;;;;;;;31.35;28.15;;;;;;;;;;5075567;28;20028;-53
2022/12/26 08:49:53;;;;;;;28.48;25.27;;;;;;;;;;5096304;28;20027;-54
2022/12/26 08:52:19;;;;;;;26.50;23.90;;;;;;;;;;5086772;28;20433;-53
2022/12/26 08:54:45;;;;;;;25.80;23.17;;;;;;;;;;5086890;28;20039;-53
2022/12/26 08:57:11;;;;;;;25.40;22.80;;;;;;;;;;5085004;28;20016;-53
2022/12/26 08:59:37;;;;;;;24.23;21.45;;;;;;;;;;5087471;28;20032;-53
2022/12/26 09:02:03;;;;;;;20.38;17.77;;;;;;;;;;5093701;28;20036;-53
2022/12/26 09:04:29;;;;;;;22.20;18.27;;;;;;;;;;5096797;28;20025;-54
2022/12/26 09:06:56;;;;;;;19.13;17.15;;;;;;;;;;5096960;28;20463;-53
2022/12/26 09:09:22;;;;;;;21.58;19.30;;;;;;;;;;5078123;28;20036;-53
2022/12/26 09:11:48;;;;;;;21.05;18.63;;;;;;;;;;5096784;28;20478;-54
2022/12/26 09:14:14;;;;;;;20.25;18.30;;;;;;;;;;5096804;28;20032;-53
2022/12/26 09:16:42;;;;;;;25.02;20.63;;;;;;;;;;5077974;28;20040;-53
2022/12/26 09:19:16;;;;;;;21.65;19.48;;;;;;;;;;5096346;28;20068;-53
2022/12/26 09:21:43;;;;;;;19.95;17.88;;;;;;;;;;5092864;28;20035;-53
2022/12/26 09:24:13;;;;;;;51.13;40.85;;;;;;;;;;5087236;28;20048;-53
2022/12/26 09:26:40;;;;;;;24.23;21.65;;;;;;;;;;5096929;28;20032;-53
2022/12/26 09:29:06;;;;;;;20.52;18.33;;;;;;;;;;5096415;28;20056;-53
2022/12/26 09:31:33;;;;;;;20.90;18.88;;;;;;;;;;5094812;28;20051;-53
2022/12/26 09:34:02;;;;;;;17.25;15.60;;;;;;;;;;5095055;28;20028;-53
2022/12/26 09:36:30;;;;;;;17.30;15.50;;;;;;;;;;5095102;28;20051;-52
2022/12/26 09:38:57;;;;;;;17.13;14.88;;;;;;;;;;5087370;28;20384;-52
2022/12/26 09:41:42;;;;;;;17.23;15.43;;;;;;;;;;5082016;28;20028;-51
2022/12/26 09:44:26;;;;;;;15.13;13.60;;;;;;;;;;5083245;28;20391;-51
2022/12/26 09:47:05;;;;;;;14.80;13.32;;;;;;;;;;5060239;28;20044;-51
2022/12/26 09:49:52;;;;;;;16.50;14.82;;;28.60;77.30;;;;;;5093709;28;20028;-51
2022/12/26 09:52:22;;;;;;;13.85;11.98;;;28.90;78.30;;;;;;5094641;28;20039;-51
2022/12/26 09:54:57;;;;;;;14.30;12.85;;;;;;;;;;5089056;28;20037;-53
2022/12/26 09:57:40;;;;;;;13.30;12.00;;;27.40;79.90;;;;;;5074265;28;20029;-50
2022/12/26 10:00:15;;;;;;;13.35;11.95;;;27.90;80.40;;;;;;5074024;28;20052;-49
2022/12/26 10:02:41;;;;;;;12.75;11.43;;;28.10;81.00;;;;;;5041623;28;20040;-48
2022/12/26 10:05:11;;;;;;;11.35;10.20;;;28.50;80.50;;;;;;5085552;28;20021;-55
2022/12/26 10:07:45;;;;;;;12.27;9.90;;;28.50;80.60;;;;;;5059821;28;20488;-53
2022/12/26 10:10:16;;;;;;;10.77;9.43;;;28.60;80.10;;;;;;5075250;28;20047;-53
2022/12/26 10:12:53;;;;;;;11.45;10.25;;;28.80;80.40;;;;;;5069392;28;20349;-52
2022/12/26 10:15:34;;;;;;;15.10;12.07;;;28.90;80.20;;;;;;5073704;28;20048;-53
2022/12/26 10:18:24;;;;;;;28.40;15.75;;;28.60;80.30;;;;;;5073986;28;20028;-55
2022/12/26 10:21:17;;;;;;;19.48;14.95;;;28.00;81.10;;;;;;5073928;28;20165;-51
2022/12/26 10:24:01;;;;;;;18.00;14.82;;;27.00;82.20;;;;;;5071230;28;20047;-48
2022/12/26 10:26:40;;;;;;;18.30;16.00;;;27.40;82.10;;;;;;5073596;28;20032;-52
2022/12/26 10:29:09;;;;;;;17.80;15.95;;;28.10;81.70;;;;;;5073205;28;20032;-51
2022/12/26 10:31:41;;;;;;;45.53;40.67;;;28.20;81.90;;;;;;5073745;28;20067;-53
2022/12/26 10:34:06;;;;;;;;;;;29.50;80.50;;;;;;5071923;28;20044;-51
2022/12/26 10:36:40;;;;;;;49.70;40.30;;;;;;;;;;5073465;28;19904;-51
2022/12/26 10:39:10;;;;;;;75.40;58.00;;;;;;;;;;5073808;28;20025;-52
2022/12/26 10:41:45;;;;;;;120.10;91.63;;;28.00;81.30;;;;;;5073526;28;20037;-53
2022/12/26 10:44:13;;;;;;;212.63;165.68;;;27.90;82.50;;;;;;5073451;28;20438;-52
2022/12/26 10:46:53;;;;;;;129.38;107.25;;;;;;;;;;5081274;28;20467;-52
2022/12/26 10:49:23;;;;;;;36.78;32.03;;;28.20;82.60;;;;;;5073576;28;20024;-54
2022/12/26 10:51:50;;;;;;;33.40;28.58;;;27.00;83.50;;;;;;5077892;28;20029;-53
2022/12/26 10:54:17;;;;;;;30.23;25.42;;;;;;;;;;5072223;28;20044;-52
2022/12/26 10:56:44;;;;;;;29.88;25.73;;;;;;;;;;5073076;28;20024;-52
2022/12/26 10:59:41;;;;;;;33.63;25.85;;;26.70;99.90;;;;;;5073557;28;20372;-52
2022/12/26 11:02:16;;;;;;;36.10;29.42;;;;;;;;;;4978291;28;20048;-51
2022/12/26 11:04:56;;;;;;;38.33;30.73;;;25.20;85.40;;;;;;5011057;28;20049;-52
2022/12/26 11:07:26;;;;;;;39.13;31.88;;;25.20;86.20;;;;;;5011165;28;20528;-52
2022/12/26 11:09:57;;;;;;;44.00;34.78;;;25.30;86.10;;;;;;5011078;28;20025;-51
2022/12/26 11:12:49;;;;;;;54.72;42.05;;;25.30;85.90;;;;;;5011006;28;20548;-52
2022/12/26 11:15:20;;;;;;;;;;;25.40;86.00;;;;;;5011497;28;20053;-52
2022/12/26 11:17:49;;;;;;;56.55;47.45;;;25.60;86.20;;;;;;5010901;28;20389;-52
2022/12/26 11:20:15;;;;;;;56.60;46.53;;;26.30;89.50;;;;;;5010925;28;20045;-51
2022/12/26 11:22:42;;;;;;;63.72;53.28;;;;;;;;;;5010859;28;20401;-52
2022/12/26 11:25:29;;;;;;;71.68;60.72;;;26.80;84.10;;;;;;5010550;28;20101;-50
2022/12/26 11:27:57;;;;;;;85.72;64.32;;;27.00;84.50;;;;;;5010724;28;20034;-51
2022/12/26 11:30:36;;;;;;;78.93;61.42;;;26.70;84.60;;;;;;5010612;28;20105;-51
2022/12/26 11:33:01;;;;;;;73.65;58.28;;;26.60;85.30;;;;;;5010669;28;20120;-50
2022/12/26 11:35:33;;;;;;;60.25;47.95;;;26.70;85.30;;;;;;5010574;28;20113;-51
2022/12/26 11:38:00;;;;;;;62.95;52.88;;;27.20;84.90;;;;;;5012816;28;20414;-52
2022/12/26 11:40:37;;;;;;;56.40;47.75;;;27.50;84.20;;;;;;5072481;28;20417;-52
2022/12/26 11:43:06;;;;;;;55.42;44.42;;;27.70;90.60;;;;;;5072231;28;20020;-52
2022/12/26 11:45:42;;;;;;;56.10;46.75;;;28.00;93.90;;;;;;5053622;28;20376;-51
2022/12/26 11:48:16;;;;;;;66.07;50.38;;;;;;;;;;5072365;28;20502;-51
2022/12/26 11:50:44;;;;;;;61.78;48.55;;;;;;;;;;5072269;28;20495;-52
2022/12/26 11:53:16;;;;;;;59.22;47.38;;;27.30;99.90;;;;;;5072251;28;20485;-52
2022/12/26 11:55:42;;;;;;;54.90;44.53;;;27.00;84.50;;;;;;5071780;28;20114;-52
2022/12/26 11:58:08;;;;;;;57.78;46.08;;;26.70;84.60;;;;;;5053335;28;20115;-51
2022/12/26 12:00:42;;;;;;;63.35;50.22;;;26.80;86.90;;;;;;5072185;28;20036;-50
2022/12/26 12:03:19;;;;;;;57.70;45.50;;;26.70;96.80;;;;;;5072324;28;20059;-51
2022/12/26 12:06:06;;;;;;;64.47;46.80;;;26.80;85.40;;;;;;5071821;28;20037;-52
2022/12/26 12:08:56;;;;;;;63.03;48.78;;;;;;;;;;5071961;28;20428;-51
2022/12/26 12:11:39;;;;;;;68.30;51.53;;;25.60;86.10;;;;;;5072146;28;20033;-52
2022/12/26 12:14:11;;;;;;;64.53;48.72;;;;;;;;;;5053078;28;20056;-51
2022/12/26 12:16:44;;;;;;;65.43;44.92;;;24.80;88.90;;;;;;5069053;28;20040;-52
2022/12/26 12:19:54;;;;;;;62.15;49.33;;;24.40;88.10;;;;;;5051985;28;20368;-51
2022/12/26 12:22:43;;;;;;;60.83;48.83;;;;;;;;;;4989900;28;20386;-50
2022/12/26 12:25:24;;;;;;;67.28;50.65;;;23.30;90.00;;;;;;4988827;28;20050;-61
2022/12/26 12:27:56;;;;;;;80.72;54.28;;;23.10;90.70;;;;;;4959953;28;20165;-52
2022/12/26 12:30:44;;;;;;;83.78;51.17;;;23.20;90.70;;;;;;5001373;28;20042;-51
2022/12/26 12:33:41;;;;;;;66.40;47.30;;;22.80;91.00;;;;;;5108092;27;1325645;-50
2022/12/26 12:36:20;;;;;;;61.33;43.17;;;23.00;96.40;;;;;;5130415;28;20035;-50
2022/12/26 12:38:54;;;;;;;54.20;41.50;;;22.70;91.20;;;;;;5130151;27;20039;-48
2022/12/26 12:41:44;;;;;;;46.15;35.97;;;22.90;99.90;;;;;;5129857;28;20037;-47
2022/12/26 12:44:51;;;;;;;49.75;35.60;;;22.10;91.30;;;;;;5128733;28;20039;-48
2022/12/26 12:47:29;;;;;;;50.10;35.83;;;21.90;91.60;;;;;;5129297;28;20184;-53
2022/12/26 12:50:26;;;;;;;61.50;36.63;;;21.70;92.20;;;;;;5129492;28;20034;-52
2022/12/26 12:53:25;;;;;;;54.20;37.80;;;22.90;95.80;;;;;;5064931;28;20056;-54
2022/12/26 12:56:23;;;;;;;77.05;53.22;;;23.00;96.60;;;;;;5062117;28;20075;-51
2022/12/26 12:59:35;;;;;;;51.92;36.67;;;22.40;99.90;;;;;;4988165;28;20038;-52
2022/12/26 13:02:09;;;;;;;49.13;36.30;;;22.30;94.10;;;;;;4948180;29;20043;-54
2022/12/26 13:04:43;;;;;;;44.13;33.20;;;22.30;94.90;;;;;;4948590;29;20122;-53
2022/12/26 13:07:20;;;;;;;41.90;32.33;;;22.10;99.90;;;;;;4948464;29;20114;-51
2022/12/26 13:09:52;;;;;;;42.60;27.85;;;;;;;;;;4948324;29;20039;-47
2022/12/26 13:12:20;;;;;;;;;;;21.60;99.90;;;;;;4947912;29;20168;-50
2022/12/26 13:14:56;;;;;;;41.83;27.88;;;21.00;99.90;;;;;;4931154;29;20409;-49
2022/12/26 13:17:25;;;;;;;46.55;29.27;;;;;;;;;;4945607;29;20047;-54
2022/12/26 13:19:59;;;;;;;38.20;28.42;;;21.20;94.60;;;;;;4947076;29;20043;-52
2022/12/26 13:24:22;;;;;;;39.92;28.83;;;21.40;96.70;;;;;;4945287;29;20075;-49
2022/12/26 13:25:17;;;;;;;40.30;23.87;;;;;;;;;;4947012;29;20122;-49
2022/12/26 13:27:45;;;;;;;29.20;21.05;;;21.10;99.90;;;;;;4947625;29;20519;-50
2022/12/26 13:30:12;;;;;;;32.03;22.05;;;;;;;;;;4982759;28;20043;-48
2022/12/26 13:32:38;;;;;;;25.90;18.00;;;20.80;92.70;;;;;;5032306;28;20139;-51
2022/12/26 13:35:05;;;;;;;29.92;18.75;;;;;;;;;;5058424;28;20131;-50
2022/12/26 13:37:36;;;;;;;25.45;16.92;;;20.80;92.60;;;;;;5108954;28;20352;-51
2022/12/26 13:40:15;;;;;;;27.92;16.77;;;21.00;93.00;;;;;;5108082;28;20425;-52
2022/12/26 13:46:03;;;;;;;25.63;14.73;;;;;;;;;;5095195;28;20080;-52
2022/12/26 13:48:31;;;;;;;21.75;14.93;;;20.60;93.60;;;;;;5094701;28;20036;-50
2022/12/26 13:51:02;;;;;;;25.58;15.13;;;20.50;93.90;;;;;;5094537;28;20028;-49
2022/12/26 13:53:31;;;;;;;25.65;14.90;;;20.50;99.90;;;;;;5075414;28;20087;-48
2022/12/26 13:56:01;;;;;;;15.27;9.85;;;20.40;99.90;;;;;;5094627;28;20039;-49
2022/12/26 13:59:00;;;;;;;18.70;11.32;;;20.30;99.90;;;;;;5094779;28;20047;-49
2022/12/26 14:01:36;;;;;;;15.80;10.68;;;19.70;99.90;;;;;;5095006;28;20028;-49
2022/12/26 14:04:29;;;;;;;17.48;10.52;;;20.00;99.90;;;;;;5092360;28;20063;-50
2022/12/26 14:07:01;;;;;;;14.43;8.90;;;;;;;;;;5094079;28;20024;-52
2022/12/26 14:10:20;;;;;;;15.98;11.10;;;19.80;99.90;;;;;;5094545;28;20497;-51
2022/12/26 14:12:49;;;;;;;15.30;10.00;;;19.40;99.90;;;;;;5014837;28;20049;-53
2022/12/26 14:15:15;;;;;;;14.80;11.02;;;19.10;99.90;;;;;;5031817;28;20595;-52
2022/12/26 14:17:50;;;;;;;26.73;22.27;;;;;;;;;;5031966;28;20041;-50
2022/12/26 14:20:31;;;;;;;29.40;25.15;;;19.00;96.80;;;;;;5031893;28;20541;-49
2022/12/26 14:23:20;;;;;;;32.47;23.27;;;18.60;99.90;;;;;;5031574;28;20089;-50
2022/12/26 14:25:57;;;;;;;22.45;16.98;;;18.70;96.70;;;;;;5031689;28;20032;-52
2022/12/26 14:28:42;;;;;;;20.30;14.40;;;;;;;;;;5031565;28;20053;-53
2022/12/26 14:31:30;;;;;;;31.90;21.88;;;18.30;99.90;;;;;;5031301;28;20083;-46
2022/12/26 14:34:14;;;;;;;30.38;21.15;;;18.60;97.00;;;;;;5031363;28;20057;-53
2022/12/26 14:36:42;;;;;;;53.28;40.05;;;18.60;97.30;;;;;;5031531;28;20056;-50
2022/12/26 14:39:18;;;;;;;42.47;29.08;;;;;;;;;;5031091;28;20044;-52
2022/12/26 14:44:57;;;;;;;36.90;29.52;;;18.20;98.80;;;;;;5031137;28;20124;-53
2022/12/26 14:47:41;;;;;;;40.92;28.92;;;17.80;99.60;;;;;;5046272;28;20046;-51
2022/12/26 14:50:32;;;;;;;30.95;22.23;;;17.70;99.90;;;;;;5074441;28;20044;-51
2022/12/26 14:53:19;;;;;;;30.45;21.52;;;17.00;99.90;;;;;;5093566;28;20036;-53
2022/12/26 14:55:47;;;;;;;26.50;18.60;;;17.30;99.90;;;;;;5092678;28;20028;-53
2022/12/26 14:58:41;;;;;;;25.17;17.67;;;17.50;99.90;;;;;;5029715;28;20039;-57
2022/12/26 15:01:11;;;;;;;28.23;21.02;;;;;;;;;;5092264;28;20063;-54
2022/12/26 15:03:43;;;;;;;21.58;16.85;;;17.10;99.90;;;;;;5094220;28;20043;-53
2022/12/26 15:06:17;;;;;;;20.58;15.32;;;16.90;99.90;;;;;;5113181;28;20685;-52
2022/12/26 15:08:49;;;;;;;38.75;26.27;;;17.00;99.90;;;;;;5111137;28;20111;-52
2022/12/26 15:11:42;;;;;;;78.47;48.47;;;16.20;99.90;;;;;;5113631;28;20032;-53
2022/12/26 15:14:47;;;;;;;63.42;38.05;;;16.40;99.90;;;;;;5113427;28;20536;-53
2022/12/26 15:17:37;;;;;;;60.22;39.78;;;16.20;99.90;;;;;;5112803;28;20036;-53
2022/12/26 15:20:28;;;;;;;42.58;29.08;;;15.90;99.90;;;;;;5113248;28;20027;-54
2022/12/26 15:23:24;;;;;;;41.75;29.48;;;15.60;99.90;;;;;;5113374;28;20024;-51
2022/12/26 15:26:17;;;;;;;35.00;26.95;;;15.80;99.90;;;;;;5113248;28;20135;-56
2022/12/26 15:28:58;;;;;;;40.42;29.13;;;15.70;99.90;;;;;;5113253;28;20391;-49
2022/12/26 15:31:33;;;;;;;31.80;24.83;;;15.60;99.90;;;;;;5095135;28;20099;-55